Havasupai Indian Reservation, Arizona
Current Conditions -  °F | °C
As of 4:54 AM on Saturday 20 Dec 2014 (Local Time) from KGCN Reporting Station
Clear Clear  
Wind Chill: 21°   Ceiling: Unl
Heat Index: 21°   Visibility: 10mi
Dew Point: 19°   Wind: 0mph
Humidity: 92%   Direction: NA
Pressure: 30.15"   Gusts: NA
Location:  36.16°N, 112.613°W
Report Text: KGCN 201154Z 00000KT 10SM CLR M06/M07 A3015 RMK AO2 SLP213 I1000 I6000 T10611072 11022 21061 58009
Loading
Personal Weather Stations






























Interactive Weather Map New forecast layout! Learn more

10-Day Weather Forecast

Advertisements
Track Severe Weather on mobile